createdAt,value
2024-01-05T00:01:32.980Z,14.71
2024-01-05T00:04:02.182Z,14.79
2024-01-05T00:06:31.022Z,14.88
2024-01-05T00:08:58.943Z,15.00
2024-01-05T00:11:26.491Z,15.07
2024-01-05T00:13:54.130Z,15.07
2024-01-05T00:16:22.719Z,15.11
2024-01-05T00:18:50.769Z,15.13
2024-01-05T00:21:25.480Z,15.14
2024-01-05T00:23:53.984Z,15.15
2024-01-05T00:26:21.504Z,15.14
2024-01-05T00:28:49.953Z,15.12
2024-01-05T00:31:18.151Z,15.09
2024-01-05T00:33:46.078Z,15.04
2024-01-05T00:36:13.739Z,15.01
2024-01-05T00:38:48.772Z,14.97
2024-01-05T00:41:16.813Z,14.99
2024-01-05T00:43:44.360Z,15.07
2024-01-05T00:46:11.931Z,15.13
2024-01-05T00:48:39.658Z,15.18
2024-01-05T00:51:07.480Z,15.23
2024-01-05T00:53:35.223Z,15.28
2024-01-05T00:56:02.879Z,15.31
2024-01-05T00:58:30.659Z,15.30
2024-01-05T01:00:58.277Z,15.25
2024-01-05T01:03:25.971Z,15.19
2024-01-05T01:05:53.663Z,15.12
2024-01-05T01:08:21.304Z,15.05
2024-01-05T01:10:48.852Z,15.00
2024-01-05T01:13:16.331Z,14.96
2024-01-05T01:15:43.863Z,14.91
2024-01-05T01:18:11.543Z,14.94
2024-01-05T01:20:40.022Z,14.98
2024-01-05T01:23:07.681Z,15.06
2024-01-05T01:25:35.281Z,15.05
2024-01-05T01:28:04.444Z,15.07
2024-01-05T01:30:32.070Z,15.13
2024-01-05T01:32:59.785Z,15.16
2024-01-05T01:35:27.460Z,15.17
2024-01-05T01:37:54.980Z,15.15
2024-01-05T01:40:22.640Z,15.12
2024-01-05T01:42:50.921Z,15.01
2024-01-05T01:45:19.352Z,14.94
2024-01-05T01:47:47.343Z,14.91
2024-01-05T01:50:15.141Z,14.93
2024-01-05T01:52:44.552Z,14.95
2024-01-05T01:55:12.201Z,15.00
2024-01-05T01:57:39.831Z,15.10
2024-01-05T02:00:08.475Z,15.20
2024-01-05T02:02:36.109Z,15.24
2024-01-05T02:05:04.050Z,15.24
2024-01-05T02:07:31.741Z,15.26
2024-01-05T02:09:59.248Z,15.23
2024-01-05T02:12:26.850Z,15.21
2024-01-05T02:14:54.445Z,15.16
2024-01-05T02:17:32.179Z,15.11
2024-01-05T02:20:00.389Z,15.08
2024-01-05T02:22:30.629Z,15.11
2024-01-05T02:24:58.935Z,15.13
2024-01-05T02:27:26.970Z,15.13
2024-01-05T02:29:54.571Z,15.12
2024-01-05T02:32:22.619Z,15.09
2024-01-05T02:34:50.314Z,15.06
2024-01-05T02:37:17.924Z,15.01
2024-01-05T02:39:45.891Z,14.97
2024-01-05T02:42:13.470Z,14.94
2024-01-05T02:44:41.111Z,14.88
2024-01-05T02:47:08.699Z,14.83
2024-01-05T02:49:36.572Z,14.90
2024-01-05T02:52:04.715Z,14.98
2024-01-05T02:54:32.596Z,15.01
2024-01-05T02:57:00.293Z,15.06
2024-01-05T02:59:27.952Z,15.12
2024-01-05T03:01:55.467Z,15.20
2024-01-05T03:04:23.060Z,15.21
2024-01-05T03:06:50.617Z,15.20
2024-01-05T03:09:18.337Z,15.19
2024-01-05T03:11:46.224Z,15.15
2024-01-05T03:14:15.053Z,15.08
2024-01-05T03:16:42.884Z,15.08
2024-01-05T03:19:10.722Z,15.01
2024-01-05T03:21:38.462Z,14.96
2024-01-05T03:24:06.853Z,14.94
2024-01-05T03:26:34.389Z,14.90
2024-01-05T03:29:02.469Z,14.87
2024-01-05T03:31:30.021Z,14.93
2024-01-05T03:33:58.005Z,14.99
2024-01-05T03:36:25.646Z,15.06
2024-01-05T03:38:53.413Z,15.13
2024-01-05T03:41:21.036Z,15.19
2024-01-05T03:43:48.538Z,15.19
2024-01-05T03:46:16.165Z,15.17
2024-01-05T03:48:43.759Z,15.16
2024-01-05T03:51:11.445Z,15.14
2024-01-05T03:53:39.052Z,15.06
2024-01-05T03:56:07.066Z,14.96
2024-01-05T03:58:34.979Z,14.90
2024-01-05T04:01:02.988Z,14.83
2024-01-05T04:03:31.004Z,14.77
2024-01-05T04:05:58.613Z,14.73
2024-01-05T04:08:26.256Z,14.68
2024-01-05T04:10:53.751Z,14.65
2024-01-05T04:15:20.696Z,12.66
2024-01-05T04:17:48.819Z,14.03
2024-01-05T04:20:16.445Z,14.35
2024-01-05T04:22:44.065Z,14.53
2024-01-05T04:25:11.567Z,14.64
2024-01-05T04:27:39.396Z,14.68
2024-01-05T04:30:07.879Z,14.70
2024-01-05T04:32:35.806Z,14.67
2024-01-05T04:35:04.723Z,14.64
2024-01-05T04:37:32.387Z,14.61
2024-01-05T04:39:59.945Z,14.58
2024-01-05T04:42:28.445Z,14.55
2024-01-05T04:44:56.222Z,14.49
2024-01-05T04:47:24.773Z,14.40
2024-01-05T04:49:52.365Z,14.29
2024-01-05T04:52:19.948Z,14.24
2024-01-05T04:54:47.461Z,14.24
2024-01-05T04:57:14.986Z,14.23
2024-01-05T04:59:42.890Z,14.27
2024-01-05T05:02:10.381Z,14.32
2024-01-05T05:04:37.894Z,14.37
2024-01-05T05:07:05.864Z,14.38
2024-01-05T05:09:33.528Z,14.35
2024-01-05T05:12:01.243Z,14.33
2024-01-05T05:14:28.857Z,14.31
2024-01-05T05:16:56.417Z,14.26
2024-01-05T05:19:24.083Z,14.21
2024-01-05T05:21:51.844Z,14.12
2024-01-05T05:24:19.432Z,14.03
2024-01-05T05:26:46.967Z,13.99
2024-01-05T05:29:15.036Z,14.01
2024-01-05T05:31:42.953Z,14.01
2024-01-05T05:34:10.848Z,13.98
2024-01-05T05:36:38.493Z,14.04
2024-01-05T05:39:06.649Z,14.12
2024-01-05T05:41:34.278Z,14.17
2024-01-05T05:44:01.776Z,14.19
2024-01-05T05:46:29.390Z,14.24
2024-01-05T05:48:57.135Z,14.29
2024-01-05T05:51:24.942Z,14.35
2024-01-05T05:53:52.638Z,14.39
2024-01-05T05:56:20.240Z,14.39
2024-01-05T05:58:47.662Z,14.38
2024-01-05T06:01:15.625Z,14.37
2024-01-05T06:03:43.511Z,14.41
2024-01-05T06:06:20.212Z,14.44
2024-01-05T06:08:47.976Z,14.53
2024-01-05T06:11:17.388Z,14.66
2024-01-05T06:13:47.911Z,14.79
2024-01-05T06:16:15.582Z,14.93
2024-01-05T06:18:43.694Z,15.04
2024-01-05T06:21:11.742Z,15.14
2024-01-05T06:23:39.298Z,15.18
2024-01-05T06:26:06.892Z,15.19
2024-01-05T06:28:34.599Z,15.20
2024-01-05T06:31:02.163Z,15.29
2024-01-05T06:33:29.922Z,15.41
2024-01-05T06:35:57.640Z,15.58
2024-01-05T06:38:25.086Z,15.74
2024-01-05T06:40:52.601Z,15.88
2024-01-05T06:43:20.260Z,15.99
2024-01-05T06:45:47.822Z,16.12
2024-01-05T06:48:15.497Z,16.26
2024-01-05T06:50:43.332Z,16.40
2024-01-05T06:53:11.012Z,16.50
2024-01-05T06:55:38.573Z,16.57
2024-01-05T06:58:06.954Z,16.58
2024-01-05T07:00:34.397Z,16.58
2024-01-05T07:03:01.975Z,16.59
2024-01-05T07:05:29.547Z,16.57
2024-01-05T07:07:57.108Z,16.44
2024-01-05T07:10:24.958Z,16.37
2024-01-05T07:12:53.481Z,16.41
2024-01-05T07:15:21.122Z,16.47
2024-01-05T07:17:49.244Z,16.63
2024-01-05T07:20:17.140Z,16.66
2024-01-05T07:22:44.801Z,16.59
2024-01-05T07:25:12.303Z,16.50
2024-01-05T07:27:39.957Z,16.44
2024-01-05T07:30:08.366Z,16.47
2024-01-05T07:32:36.009Z,16.52
2024-01-05T07:35:05.432Z,16.46
2024-01-05T07:37:32.878Z,16.45
2024-01-05T07:40:00.390Z,16.46
2024-01-05T07:42:29.251Z,16.44
2024-01-05T07:44:59.416Z,16.44
2024-01-05T07:47:27.396Z,16.39
2024-01-05T07:49:54.935Z,16.43
2024-01-05T07:52:22.491Z,16.49
2024-01-05T07:54:49.966Z,16.51
2024-01-05T07:57:17.560Z,16.54
2024-01-05T07:59:45.169Z,16.55
2024-01-05T08:02:12.758Z,16.59
2024-01-05T08:04:40.913Z,16.65
2024-01-05T08:07:08.493Z,16.67
2024-01-05T08:09:36.190Z,16.63
2024-01-05T08:12:04.253Z,16.56
2024-01-05T08:14:31.859Z,16.52
2024-01-05T08:16:59.683Z,16.52
2024-01-05T08:19:27.449Z,16.50
2024-01-05T08:21:55.090Z,16.55
2024-01-05T08:24:23.284Z,16.53
2024-01-05T08:26:50.832Z,16.45
2024-01-05T08:29:18.655Z,16.34
2024-01-05T08:31:46.453Z,16.23
2024-01-05T08:34:14.584Z,16.15
2024-01-05T08:36:42.439Z,16.16
2024-01-05T08:39:10.548Z,16.21
2024-01-05T08:41:38.190Z,16.27
2024-01-05T08:44:05.986Z,16.31
2024-01-05T08:46:33.818Z,16.34
2024-01-05T08:49:01.426Z,16.30
2024-01-05T08:51:29.792Z,16.23
2024-01-05T08:53:59.622Z,16.19
2024-01-05T08:56:27.288Z,16.21
2024-01-05T08:58:56.550Z,16.21
2024-01-05T09:01:24.272Z,16.21
2024-01-05T09:03:52.057Z,16.22
2024-01-05T09:06:19.829Z,16.22
2024-01-05T09:08:47.346Z,16.25
2024-01-05T09:11:15.576Z,16.38
2024-01-05T09:13:43.387Z,16.48
2024-01-05T09:16:10.900Z,16.55
2024-01-05T09:18:39.542Z,16.58
2024-01-05T09:21:08.817Z,16.59
2024-01-05T09:23:36.411Z,16.59
2024-01-05T09:26:04.231Z,16.58
2024-01-05T09:28:31.765Z,16.54
2024-01-05T09:30:59.345Z,16.49
2024-01-05T09:33:27.055Z,16.49
2024-01-05T09:35:54.756Z,16.44
2024-01-05T09:38:22.433Z,16.30
2024-01-05T09:40:54.183Z,16.19
2024-01-05T09:43:23.165Z,16.13
2024-01-05T09:45:51.424Z,15.97
2024-01-05T09:48:27.722Z,15.95
2024-01-05T09:50:58.360Z,16.00
2024-01-05T09:53:26.100Z,16.01
2024-01-05T09:55:53.580Z,16.01
2024-01-05T09:58:21.132Z,15.96
2024-01-05T10:00:50.736Z,15.93
2024-01-05T10:03:23.242Z,15.87
2024-01-05T10:05:52.184Z,15.90
2024-01-05T10:08:20.295Z,15.95
2024-01-05T10:10:49.848Z,16.01
2024-01-05T10:13:17.548Z,16.01
2024-01-05T10:16:06.363Z,15.97
2024-01-05T10:18:35.639Z,15.91
2024-01-05T10:21:10.493Z,15.85
2024-01-05T10:23:44.628Z,15.76
2024-01-05T10:26:20.107Z,15.66
2024-01-05T10:28:50.112Z,15.72
2024-01-05T10:31:20.648Z,15.72
2024-01-05T10:33:56.418Z,15.72
2024-01-05T10:36:24.901Z,15.72
2024-01-05T10:38:52.708Z,15.68
2024-01-05T10:41:22.493Z,15.63
2024-01-05T10:43:50.426Z,15.63
2024-01-05T10:46:21.962Z,15.67
2024-01-05T10:48:49.827Z,15.64
2024-01-05T10:51:20.326Z,15.59
2024-01-05T10:53:48.621Z,15.57
2024-01-05T10:56:17.022Z,15.52
2024-01-05T10:58:44.593Z,15.51
2024-01-05T11:01:12.308Z,15.54
2024-01-05T11:03:41.874Z,15.59
2024-01-05T11:06:12.676Z,15.63
2024-01-05T11:08:48.647Z,15.67
2024-01-05T11:11:19.279Z,15.68
2024-01-05T11:13:57.749Z,15.65
2024-01-05T11:16:53.828Z,15.59
2024-01-05T11:19:27.630Z,15.52
2024-01-05T11:22:00.518Z,15.51
2024-01-05T11:24:28.099Z,15.52
2024-01-05T11:26:55.955Z,15.52
2024-01-05T11:29:45.740Z,15.48
2024-01-05T11:32:34.461Z,15.40
2024-01-05T11:35:03.224Z,15.19
2024-01-05T11:37:32.159Z,14.99
2024-01-05T11:40:01.718Z,14.90
2024-01-05T11:42:30.593Z,14.80
2024-01-05T11:44:59.836Z,14.68
2024-01-05T11:47:47.085Z,14.62
2024-01-05T11:50:24.773Z,14.54
2024-01-05T11:53:15.363Z,14.46
2024-01-05T11:56:04.557Z,14.41
2024-01-05T11:58:33.406Z,14.31
2024-01-05T12:01:01.423Z,14.13
2024-01-05T12:03:29.543Z,14.05
2024-01-05T12:06:01.596Z,14.04
2024-01-05T12:08:29.520Z,14.08
2024-01-05T12:10:58.093Z,14.14
2024-01-05T12:13:28.126Z,14.20
2024-01-05T12:16:01.359Z,14.21
2024-01-05T12:18:37.955Z,14.21
2024-01-05T12:21:08.197Z,14.17
2024-01-05T12:23:36.712Z,14.06
2024-01-05T12:26:08.545Z,13.99
2024-01-05T12:28:38.865Z,13.85
2024-01-05T12:31:07.410Z,13.73
2024-01-05T12:33:38.943Z,13.68
2024-01-05T12:36:16.282Z,13.60
2024-01-05T12:38:44.306Z,13.57
2024-01-05T12:41:17.412Z,13.49
2024-01-05T12:43:49.556Z,13.35
2024-01-05T12:46:17.999Z,13.24
2024-01-05T12:48:45.795Z,13.16
2024-01-05T12:51:21.098Z,13.04
2024-01-05T12:54:04.884Z,12.75
2024-01-05T12:56:32.867Z,12.44
2024-01-05T12:59:00.540Z,12.36
2024-01-05T13:01:28.515Z,12.33
2024-01-05T13:03:57.515Z,12.41
2024-01-05T13:06:28.192Z,12.31
2024-01-05T13:08:57.074Z,12.13
2024-01-05T13:11:24.881Z,12.02
2024-01-05T13:13:53.115Z,11.92
2024-01-05T13:16:20.776Z,11.86
2024-01-05T13:18:48.563Z,11.80
2024-01-05T13:21:16.475Z,11.77
2024-01-05T13:23:45.430Z,11.75
2024-01-05T13:26:13.304Z,11.80
2024-01-05T13:28:42.179Z,11.86
2024-01-05T13:31:10.689Z,11.73
2024-01-05T13:33:38.602Z,11.68
2024-01-05T13:36:07.226Z,11.59
2024-01-05T13:38:34.878Z,11.51
2024-01-05T13:41:02.537Z,11.41
2024-01-05T13:43:30.019Z,11.33
2024-01-05T13:45:57.637Z,11.38
2024-01-05T13:48:25.427Z,11.41
2024-01-05T13:50:53.689Z,11.38
2024-01-05T13:53:21.444Z,11.28
2024-01-05T13:55:49.243Z,11.20
2024-01-05T13:58:17.122Z,11.04
2024-01-05T14:00:46.173Z,10.89
2024-01-05T14:03:14.354Z,10.82
2024-01-05T14:05:42.083Z,10.73
2024-01-05T14:08:09.666Z,10.61
2024-01-05T14:10:37.277Z,10.50
2024-01-05T14:13:04.779Z,10.41
2024-01-05T14:15:32.333Z,10.48
2024-01-05T14:18:00.046Z,10.56
2024-01-05T14:20:27.984Z,10.57
2024-01-05T14:22:55.644Z,10.57
2024-01-05T14:25:23.237Z,10.47
2024-01-05T14:27:50.756Z,10.40
2024-01-05T14:30:18.405Z,10.29
2024-01-05T14:32:46.184Z,10.29
2024-01-05T14:35:14.066Z,10.27
2024-01-05T14:37:41.540Z,10.25
2024-01-05T14:40:12.471Z,10.21
2024-01-05T14:42:40.185Z,10.21
2024-01-05T14:45:08.308Z,10.22
2024-01-05T14:47:35.997Z,9.96
2024-01-05T14:50:04.756Z,9.87
2024-01-05T14:52:32.341Z,9.81
2024-01-05T14:55:02.212Z,9.79
2024-01-05T14:57:29.987Z,9.70
2024-01-05T14:59:57.643Z,9.59
2024-01-05T15:02:26.016Z,9.49
2024-01-05T15:04:54.396Z,9.48
2024-01-05T15:07:22.383Z,9.49
2024-01-05T15:09:50.382Z,9.45
2024-01-05T15:12:18.188Z,9.18
2024-01-05T15:14:45.768Z,9.01
2024-01-05T15:17:13.272Z,8.88
2024-01-05T15:19:41.710Z,8.76
2024-01-05T15:22:09.673Z,8.74
2024-01-05T15:24:41.617Z,8.65
2024-01-05T15:27:09.238Z,8.57
2024-01-05T15:29:40.437Z,8.49
2024-01-05T15:32:08.147Z,8.39
2024-01-05T15:34:35.894Z,8.28
2024-01-05T15:37:03.843Z,8.12
2024-01-05T15:39:32.460Z,8.08
2024-01-05T15:42:00.180Z,8.07
2024-01-05T15:44:27.750Z,8.07
2024-01-05T15:46:56.000Z,8.10
2024-01-05T15:49:25.863Z,8.12
2024-01-05T15:51:53.635Z,8.01
2024-01-05T15:54:21.284Z,7.90
2024-01-05T15:56:48.824Z,7.90
2024-01-05T15:59:16.388Z,7.97
2024-01-05T16:01:48.600Z,8.06
2024-01-05T16:04:16.365Z,8.07
2024-01-05T16:06:44.211Z,8.04
2024-01-05T16:09:11.872Z,7.98
2024-01-05T16:11:40.726Z,7.80
2024-01-05T16:14:08.450Z,7.81
2024-01-05T16:16:36.872Z,7.75
2024-01-05T16:19:04.482Z,7.69
2024-01-05T16:21:34.401Z,7.63
2024-01-05T16:24:04.564Z,7.51
2024-01-05T16:26:32.246Z,7.45
2024-01-05T16:28:59.822Z,7.43
2024-01-05T16:33:39.354Z,5.48
2024-01-05T16:36:07.932Z,6.69
2024-01-05T16:38:36.004Z,6.85
2024-01-05T16:41:07.978Z,6.86
2024-01-05T16:43:36.280Z,6.81
2024-01-05T16:46:04.765Z,6.86
2024-01-05T16:48:32.552Z,6.90
2024-01-05T16:51:00.242Z,6.93
2024-01-05T16:53:29.098Z,6.95
2024-01-05T16:55:59.768Z,6.97
2024-01-05T16:58:27.272Z,6.99
2024-01-05T17:00:54.825Z,7.00
2024-01-05T17:03:22.808Z,6.99
2024-01-05T17:05:50.482Z,6.98
2024-01-05T17:08:18.190Z,6.97
2024-01-05T17:10:46.983Z,6.96
2024-01-05T17:13:14.951Z,6.96
2024-01-05T17:15:42.673Z,6.97
2024-01-05T17:18:10.718Z,6.97
2024-01-05T17:20:38.967Z,6.99
2024-01-05T17:23:06.623Z,6.99
2024-01-05T17:25:34.498Z,7.01
2024-01-05T17:28:02.054Z,7.00
2024-01-05T17:30:29.655Z,6.95
2024-01-05T17:32:57.943Z,6.85
2024-01-05T17:35:26.004Z,6.81
2024-01-05T17:37:53.562Z,6.77
2024-01-05T17:40:21.182Z,6.74
2024-01-05T17:42:48.796Z,6.69
2024-01-05T17:45:16.552Z,6.68
2024-01-05T17:47:45.413Z,6.64
2024-01-05T17:50:15.218Z,6.61
2024-01-05T17:52:42.889Z,6.62
2024-01-05T17:55:11.161Z,6.66
2024-01-05T17:57:40.616Z,6.70
2024-01-05T18:00:09.386Z,6.71
2024-01-05T18:02:39.047Z,6.67
2024-01-05T18:05:08.468Z,6.68
2024-01-05T18:07:36.064Z,6.75
2024-01-05T18:10:04.183Z,6.83
2024-01-05T18:12:31.787Z,6.89
2024-01-05T18:14:59.258Z,6.97
2024-01-05T18:17:28.333Z,7.04
2024-01-05T18:19:56.797Z,7.08
2024-01-05T18:22:24.449Z,7.08
2024-01-05T18:24:52.226Z,7.17
2024-01-05T18:27:19.954Z,7.30
2024-01-05T18:29:47.641Z,7.37
2024-01-05T18:32:15.196Z,7.43
2024-01-05T18:34:46.784Z,7.50
2024-01-05T18:37:15.333Z,7.59
2024-01-05T18:39:44.383Z,7.66
2024-01-05T18:42:12.209Z,7.70
2024-01-05T18:44:41.806Z,7.70
2024-01-05T18:47:09.369Z,7.76
2024-01-05T18:49:37.221Z,7.80
2024-01-05T18:52:05.506Z,7.79
2024-01-05T18:54:34.151Z,7.76
2024-01-05T18:57:01.749Z,7.73
2024-01-05T18:59:29.360Z,7.68
2024-01-05T19:01:57.177Z,7.64
2024-01-05T19:04:24.895Z,7.62
2024-01-05T19:06:52.799Z,7.57
2024-01-05T19:09:21.130Z,7.54
2024-01-05T19:11:48.878Z,7.49
2024-01-05T19:14:16.554Z,7.43
2024-01-05T19:16:44.428Z,7.42
2024-01-05T19:19:15.925Z,7.39
2024-01-05T19:21:53.484Z,7.34
2024-01-05T19:24:25.475Z,7.33
2024-01-05T19:26:53.398Z,7.33
2024-01-05T19:29:21.282Z,7.29
2024-01-05T19:31:49.217Z,7.25
2024-01-05T19:34:18.110Z,7.23
2024-01-05T19:36:46.204Z,7.21
2024-01-05T19:39:15.233Z,7.21
2024-01-05T19:41:44.504Z,7.18
2024-01-05T19:44:12.215Z,7.16
2024-01-05T19:46:39.882Z,7.13
2024-01-05T19:49:07.900Z,7.10
2024-01-05T19:51:35.639Z,7.07
2024-01-05T19:54:04.550Z,7.04
2024-01-05T19:56:32.218Z,7.06
2024-01-05T19:58:59.826Z,7.06
2024-01-05T20:01:32.587Z,7.04
2024-01-05T20:04:00.396Z,7.05
2024-01-05T20:06:28.201Z,7.08
2024-01-05T20:08:56.009Z,7.09
2024-01-05T20:11:23.705Z,7.11
2024-01-05T20:13:51.229Z,7.11
2024-01-05T20:16:18.845Z,7.10
2024-01-05T20:18:47.758Z,7.10
2024-01-05T20:21:16.142Z,7.07
2024-01-05T20:23:43.929Z,7.05
2024-01-05T20:26:18.152Z,7.04
2024-01-05T20:28:46.118Z,7.03
2024-01-05T20:31:14.198Z,7.08
2024-01-05T20:33:42.059Z,7.18
2024-01-05T20:36:09.911Z,7.26
2024-01-05T20:38:37.534Z,7.35
2024-01-05T20:41:06.197Z,7.44
2024-01-05T20:43:33.833Z,7.56
2024-01-05T20:46:01.287Z,7.67
2024-01-05T20:48:29.080Z,7.71
2024-01-05T20:50:56.819Z,7.73
2024-01-05T20:53:24.382Z,7.72
2024-01-05T20:55:52.135Z,7.68
2024-01-05T20:58:19.800Z,7.66
2024-01-05T21:00:49.460Z,7.62
2024-01-05T21:03:17.321Z,7.61
2024-01-05T21:05:45.345Z,7.58
2024-01-05T21:08:14.285Z,7.55
2024-01-05T21:10:42.013Z,7.49
2024-01-05T21:13:09.583Z,7.46
2024-01-05T21:15:38.099Z,7.47
2024-01-05T21:18:06.266Z,7.52
2024-01-05T21:20:34.245Z,7.54
2024-01-05T21:23:02.067Z,7.59
2024-01-05T21:25:31.822Z,7.64
2024-01-05T21:27:59.741Z,7.68
2024-01-05T21:30:27.992Z,7.67
2024-01-05T21:32:56.078Z,7.67
2024-01-05T21:35:23.641Z,7.68
2024-01-05T21:37:52.126Z,7.67
2024-01-05T21:40:19.792Z,7.67
2024-01-05T21:42:48.543Z,7.65
2024-01-05T21:45:17.916Z,7.70
2024-01-05T21:47:45.832Z,7.72
2024-01-05T21:50:13.509Z,7.78
2024-01-05T21:52:41.693Z,7.77
2024-01-05T21:55:09.458Z,7.77
2024-01-05T21:57:37.280Z,7.77
2024-01-05T22:00:06.152Z,7.81
2024-01-05T22:02:35.510Z,7.85
2024-01-05T22:05:05.642Z,7.87
2024-01-05T22:07:33.351Z,7.89
2024-01-05T22:10:00.953Z,8.02
2024-01-05T22:12:28.581Z,8.20
2024-01-05T22:14:56.181Z,8.37
2024-01-05T22:17:23.796Z,8.52
2024-01-05T22:19:51.388Z,8.65
2024-01-05T22:22:20.397Z,8.81
2024-01-05T22:24:48.369Z,8.93
2024-01-05T22:27:16.038Z,9.02
2024-01-05T22:29:44.830Z,9.12
2024-01-05T22:32:12.368Z,9.14
2024-01-05T22:34:42.284Z,9.14
2024-01-05T22:37:10.156Z,9.10
2024-01-05T22:39:39.352Z,9.06
2024-01-05T22:42:07.130Z,9.02
2024-01-05T22:44:35.174Z,8.95
2024-01-05T22:47:06.158Z,8.87
2024-01-05T22:49:33.816Z,8.80
2024-01-05T22:52:01.547Z,8.76
2024-01-05T22:54:29.169Z,8.72
2024-01-05T22:56:56.778Z,8.70
2024-01-05T22:59:25.608Z,8.72
2024-01-05T23:01:56.293Z,8.72
2024-01-05T23:04:24.255Z,8.70
2024-01-05T23:06:52.761Z,8.68
2024-01-05T23:09:20.544Z,8.66
2024-01-05T23:11:49.296Z,8.65
2024-01-05T23:14:17.325Z,8.67
2024-01-05T23:16:48.174Z,8.71
2024-01-05T23:19:15.947Z,8.73
2024-01-05T23:21:43.482Z,8.77
2024-01-05T23:24:11.140Z,8.80
2024-01-05T23:26:38.754Z,8.79
2024-01-05T23:29:06.419Z,8.81
2024-01-05T23:31:39.155Z,8.82
2024-01-05T23:34:15.101Z,8.82
2024-01-05T23:36:44.801Z,8.78
2024-01-05T23:39:12.563Z,8.76
2024-01-05T23:41:40.308Z,8.74
2024-01-05T23:44:08.577Z,8.74
2024-01-05T23:46:36.172Z,8.70
2024-01-05T23:49:03.883Z,8.71
2024-01-05T23:51:31.783Z,8.80
2024-01-05T23:53:59.327Z,8.89
2024-01-05T23:56:27.087Z,8.99
2024-01-05T23:58:55.117Z,9.08
